Time;durP1;ratioP1;P1;durP2;ratioP2;P2;SDS_P1;SDS_P2;PMS_P1;PMS_P2;Temp;Humidity;BMP_temperature;BMP_pressure;BME280_temperature;BME280_humidity;BME280_pressure;Samples;Min_cycle;Max_cycle;Signal;HPM_P1;HPM_P2
2021/07/31 00:01:33;;;;;;;;;2.33;1.67;;;;;19.65;50.08;100871.19;4812108;29;45431;-85
2021/07/31 00:03:59;;;;;;;;;1.33;1.33;;;;;19.62;50.14;100865.03;4805980;29;45338;-84
2021/07/31 00:06:25;;;;;;;;;3.00;1.00;;;;;19.56;50.30;100856.22;4792819;29;45344;-86
2021/07/31 00:08:50;;;;;;;;;2.00;2.00;;;;;19.50;50.12;100856.34;4792577;29;45396;-85
2021/07/31 00:11:16;;;;;;;;;3.67;1.67;;;;;19.52;50.59;100862.50;4791821;29;45254;-85
2021/07/31 00:13:41;;;;;;;;;1.33;1.33;;;;;19.54;50.27;100873.19;4800272;29;45454;-86
2021/07/31 00:16:06;;;;;;;;;2.00;2.00;;;;;19.51;50.22;100873.22;4792219;29;45266;-85
2021/07/31 00:18:32;;;;;;;;;4.67;1.67;;;;;19.49;50.22;100869.69;4777308;29;47474;-85
2021/07/31 00:20:57;;;;;;;;;2.00;1.67;;;;;19.44;50.42;100876.00;4800755;29;45365;-85
2021/07/31 00:23:34;;;;;;;;;0.67;0.67;;;;;19.44;50.84;100877.75;4785095;29;45396;-85
2021/07/31 00:26:00;;;;;;;;;1.67;1.67;;;;;19.42;50.59;100882.25;4803644;29;45251;-83
2021/07/31 00:28:25;;;;;;;;;1.67;1.67;;;;;19.38;50.61;100873.44;4803639;29;46121;-84
2021/07/31 00:30:51;;;;;;;;;0.00;0.00;;;;;19.35;51.03;100873.50;4801669;29;45320;-84
2021/07/31 00:33:16;;;;;;;;;0.67;0.67;;;;;19.33;50.90;100876.16;4801780;29;45227;-85
2021/07/31 00:35:42;;;;;;;;;2.00;1.67;;;;;19.20;50.77;100851.53;4807811;29;45418;-84
2021/07/31 00:38:07;;;;;;;;;2.67;1.00;;;;;19.25;51.06;100861.25;4807278;29;45389;-85
2021/07/31 00:40:34;;;;;;;;;1.00;1.00;;;;;19.26;51.07;100879.84;4804714;29;45323;-86
2021/07/31 00:42:59;;;;;;;;;1.67;1.67;;;;;19.23;50.81;100873.72;4792868;29;45289;-86
2021/07/31 00:45:25;;;;;;;;;3.67;0.67;;;;;19.19;51.11;100871.06;4790491;29;45386;-85
2021/07/31 00:47:50;;;;;;;;;2.67;1.67;;;;;19.15;51.21;100877.38;4789564;29;46382;-85
2021/07/31 00:50:16;;;;;;;;;1.67;1.67;;;;;19.12;51.70;100866.72;4790009;29;45338;-86
2021/07/31 00:52:44;;;;;;;;;1.67;1.00;;;;;19.12;51.41;100877.38;4789848;29;45327;-86
2021/07/31 00:55:12;;;;;;;;;2.00;1.67;;;;;19.13;51.70;100880.91;4773569;29;45561;-85
2021/07/31 00:57:40;;;;;;;;;2.00;1.67;;;;;19.13;51.63;100880.91;4773071;29;47923;-86
2021/07/31 01:00:07;;;;;;;;;4.33;1.67;;;;;19.09;51.82;100882.75;4789369;29;45294;-87
2021/07/31 01:02:33;;;;;;;;;2.00;1.00;;;;;19.03;51.63;100873.09;4789263;29;45541;-85
2021/07/31 01:04:59;;;;;;;;;1.33;1.33;;;;;19.00;52.10;100877.56;4789572;29;45405;-86
2021/07/31 01:07:24;;;;;;;;;2.33;1.33;;;;;18.93;51.83;100874.13;4789337;29;46681;-86
2021/07/31 01:09:50;;;;;;;;;2.00;0.67;;;;;18.95;51.67;100875.84;4789247;29;45474;-85
2021/07/31 01:12:16;;;;;;;;;2.33;1.67;;;;;18.91;52.17;100868.81;4773211;29;45399;-85
2021/07/31 01:14:41;;;;;;;;;2.00;1.67;;;;;18.89;52.20;100873.28;4789556;29;45239;-85
2021/07/31 01:17:11;;;;;;;;;2.33;1.33;;;;;18.93;52.37;100876.81;4789275;29;45397;-85
2021/07/31 01:19:37;;;;;;;;;4.33;1.67;;;;;18.91;52.34;100878.59;4772801;29;45262;-85
2021/07/31 01:22:03;;;;;;;;;3.00;1.00;;;;;18.91;52.29;100878.59;4789481;29;45240;-85
2021/07/31 01:24:29;;;;;;;;;2.33;1.33;;;;;18.90;52.60;100882.16;4789368;29;45407;-87
2021/07/31 01:26:54;;;;;;;;;2.00;1.00;;;;;18.89;52.40;100889.25;4788865;29;46058;-85
2021/07/31 01:29:19;;;;;;;;;3.00;1.00;;;;;18.84;52.69;100873.38;4789359;29;45483;-86
2021/07/31 01:31:46;;;;;;;;;1.00;1.00;;;;;18.86;52.64;100881.34;4787778;29;45437;-85
2021/07/31 01:34:12;;;;;;;;;1.67;1.67;;;;;18.83;52.65;100881.38;4789359;29;45481;-86
2021/07/31 01:36:37;;;;;;;;;4.00;1.00;;;;;18.81;53.01;100884.06;4788518;29;45442;-84
2021/07/31 01:39:04;;;;;;;;;5.33;2.33;;;;;18.80;52.68;100884.09;4788943;29;45368;-86
2021/07/31 01:41:30;;;;;;;;;2.00;1.33;;;;;18.72;52.90;100876.19;4788784;29;45306;-86
2021/07/31 01:43:56;;;;;;;;;0.67;0.67;;;;;18.70;53.11;100875.34;4788956;29;45325;-85
2021/07/31 01:46:22;;;;;;;;;2.00;2.00;;;;;18.75;53.14;100884.16;4791783;29;46098;-85
2021/07/31 01:48:48;;;;;;;;;2.67;1.67;;;;;18.73;52.99;100891.28;4791692;29;45180;-85
2021/07/31 01:51:14;;;;;;;;;2.00;1.67;;;;;18.67;53.20;100881.59;4792226;29;45289;-85
2021/07/31 01:53:40;;;;;;;;;0.67;0.67;;;;;18.68;53.30;100888.69;4792020;29;45361;-85
2021/07/31 01:56:06;;;;;;;;;2.00;2.00;;;;;18.67;53.39;100883.38;4791520;29;46197;-86
2021/07/31 01:58:31;;;;;;;;;3.33;1.00;;;;;18.65;53.54;100882.53;4775347;29;45464;-84
2021/07/31 02:00:58;;;;;;;;;2.33;2.00;;;;;18.62;53.37;100884.31;4791833;29;45398;-86
2021/07/31 02:03:23;;;;;;;;;1.33;1.33;;;;;18.61;53.80;100882.53;4791904;29;45337;-85
2021/07/31 02:05:50;;;;;;;;;3.67;1.00;;;;;18.59;53.58;100889.69;4791533;29;45279;-86
2021/07/31 02:08:16;;;;;;;;;4.00;2.33;;;;;18.54;53.87;100886.22;4791844;29;45392;-86
2021/07/31 02:10:41;;;;;;;;;2.00;2.00;;;;;18.55;53.69;100887.97;4791848;29;45347;-86
2021/07/31 02:13:06;;;;;;;;;2.00;2.00;;;;;18.55;53.94;100882.63;4791965;29;45328;-85
2021/07/31 02:15:32;;;;;;;;;1.67;1.67;;;;;18.46;54.03;100867.69;4775144;29;47655;-86
2021/07/31 02:17:58;;;;;;;;;0.67;0.67;;;;;18.50;54.12;100879.16;4791442;29;45357;-86
2021/07/31 02:20:24;;;;;;;;;6.00;2.00;;;;;18.47;54.47;100873.88;4791635;29;45210;-86
2021/07/31 02:22:51;;;;;;;;;2.00;2.00;;;;;18.48;54.35;100872.97;4791577;29;45412;-85
2021/07/31 02:25:16;;;;;;;;;2.67;0.67;;;;;18.48;54.19;100870.31;4790991;29;46347;-85
2021/07/31 02:27:43;;;;;;;;;1.00;1.00;;;;;18.47;54.34;100865.88;4791180;29;45376;-85
2021/07/31 02:30:10;;;;;;;;;2.00;2.00;;;;;18.45;54.60;100865.03;4775046;29;45344;-85
2021/07/31 02:32:35;;;;;;;;;1.67;1.67;;;;;18.43;54.57;100866.81;4791657;29;45490;-85
2021/07/31 02:35:00;;;;;;;;;2.67;1.00;;;;;18.39;54.72;100868.66;4790842;29;46455;-86
2021/07/31 02:37:26;;;;;;;;;2.67;1.00;;;;;18.37;54.93;100871.34;4791208;29;45384;-86
2021/07/31 02:39:51;;;;;;;;;2.00;2.00;;;;;18.34;54.89;100862.53;4791438;29;45318;-85
2021/07/31 02:42:17;;;;;;;;;1.67;1.33;;;;;18.34;54.69;100865.19;4792801;29;45234;-86
2021/07/31 02:44:42;;;;;;;;;3.00;3.00;;;;;18.28;54.98;100858.16;4801136;29;45346;-85
2021/07/31 02:47:07;;;;;;;;;1.33;1.33;;;;;18.26;55.14;100851.97;4793959;29;45606;-86
2021/07/31 02:49:33;;;;;;;;;3.33;1.33;;;;;18.27;55.26;100856.41;4790517;29;45270;-85
2021/07/31 02:51:58;;;;;;;;;3.00;1.33;;;;;18.30;55.35;100855.50;4791476;29;45471;-85
2021/07/31 02:54:24;;;;;;;;;2.00;1.00;;;;;18.25;55.21;100853.75;4790924;29;45630;-85
2021/07/31 02:56:49;;;;;;;;;3.00;1.00;;;;;18.27;55.31;100853.75;4789245;29;45371;-85
2021/07/31 02:59:14;;;;;;;;;2.00;2.00;;;;;18.25;55.28;100848.41;4791136;29;45371;-86
2021/07/31 03:01:40;;;;;;;;;2.33;1.67;;;;;18.30;55.30;100860.81;4791399;29;44770;-86
2021/07/31 03:04:05;;;;;;;;;1.67;1.67;;;;;18.26;55.56;100857.28;4790938;29;45607;-86
2021/07/31 03:06:31;;;;;;;;;1.67;1.67;;;;;18.20;55.49;100849.38;4790657;29;45391;-85
2021/07/31 03:08:56;;;;;;;;;3.00;1.33;;;;;18.25;55.56;100868.84;4791090;29;45366;-86
2021/07/31 03:11:23;;;;;;;;;2.00;2.00;;;;;18.24;55.58;100865.28;4790791;29;45364;-85
2021/07/31 03:13:48;;;;;;;;;2.00;2.00;;;;;18.24;55.59;100857.31;4774227;29;46544;-85
2021/07/31 03:16:13;;;;;;;;;1.00;1.00;;;;;18.17;55.46;100850.28;4790887;29;45379;-85
2021/07/31 03:18:39;;;;;;;;;2.00;2.00;;;;;18.21;55.47;100861.81;4790687;29;45243;-85
2021/07/31 03:21:05;;;;;;;;;2.33;2.33;;;;;18.11;55.69;100853.88;4790790;29;45313;-86
2021/07/31 03:23:30;;;;;;;;;2.00;2.00;;;;;18.12;55.84;100858.31;4790519;29;45362;-85
2021/07/31 03:25:57;;;;;;;;;1.67;1.67;;;;;18.09;56.15;100850.38;4790406;29;45306;-86
2021/07/31 03:28:23;;;;;;;;;3.00;2.00;;;;;18.10;56.10;100854.81;4790640;29;45321;-86
2021/07/31 03:30:49;;;;;;;;;2.00;2.00;;;;;18.14;55.98;100860.97;4790849;29;45273;-84
2021/07/31 03:33:14;;;;;;;;;2.00;2.00;;;;;18.11;55.85;100858.31;4790616;29;45364;-85
2021/07/31 03:35:41;;;;;;;;;3.00;1.00;;;;;18.09;55.96;100857.47;4790143;29;45391;-85
2021/07/31 03:38:08;;;;;;;;;2.67;2.67;;;;;18.07;55.57;100865.47;4790085;29;45359;-85
2021/07/31 03:40:34;;;;;;;;;4.00;2.00;;;;;18.06;56.21;100856.59;4790846;29;45447;-85
2021/07/31 03:42:59;;;;;;;;;2.33;2.00;;;;;18.03;56.18;100854.00;4790285;29;45894;-86
2021/07/31 03:45:25;;;;;;;;;2.00;2.00;;;;;18.01;56.07;100855.78;4790295;29;45334;-86
2021/07/31 03:47:50;;;;;;;;;2.33;2.00;;;;;17.98;56.26;100857.59;4773953;29;45320;-85
2021/07/31 03:50:16;;;;;;;;;3.33;3.33;;;;;17.93;56.51;100861.19;4790670;29;45430;-86
2021/07/31 03:52:41;;;;;;;;;4.00;2.00;;;;;17.90;56.66;100858.56;4789986;29;45428;-86
2021/07/31 03:55:08;;;;;;;;;3.00;2.00;;;;;17.94;56.64;100865.59;4790165;29;45333;-85
2021/07/31 03:57:34;;;;;;;;;2.00;2.00;;;;;17.92;56.70;100862.09;4790092;29;45402;-85
2021/07/31 04:00:00;;;;;;;;;2.00;2.00;;;;;17.89;56.48;100870.13;4790511;29;45476;-86
2021/07/31 04:02:26;;;;;;;;;2.00;2.00;;;;;17.81;56.85;100863.97;4789946;29;46080;-85
2021/07/31 04:04:51;;;;;;;;;2.00;2.00;;;;;17.78;57.00;100866.69;4789971;29;45464;-86
2021/07/31 04:07:17;;;;;;;;;3.67;2.67;;;;;17.85;57.07;100878.13;4772892;29;45686;-85
2021/07/31 04:09:42;;;;;;;;;4.00;2.67;;;;;17.84;56.80;100882.56;4790122;29;45377;-86
2021/07/31 04:12:08;;;;;;;;;3.33;2.33;;;;;17.79;56.76;100868.41;4789777;29;45503;-85
2021/07/31 04:14:33;;;;;;;;;1.33;1.33;;;;;17.85;56.94;100880.78;4789760;29;45499;-85
2021/07/31 04:17:00;;;;;;;;;2.00;2.00;;;;;17.83;57.36;100867.50;4789911;29;45348;-85
2021/07/31 04:19:25;;;;;;;;;3.00;3.00;;;;;17.83;57.39;100872.81;4790125;29;45278;-85
2021/07/31 04:21:53;;;;;;;;;4.00;2.00;;;;;17.80;57.27;100862.22;4789614;29;45654;-85
2021/07/31 04:24:19;;;;;;;;;4.00;3.00;;;;;17.83;57.24;100876.34;4789891;29;45662;-85
2021/07/31 04:26:45;;;;;;;;;4.00;2.67;;;;;17.75;57.16;100862.25;4773225;29;45489;-86
2021/07/31 04:29:10;;;;;;;;;3.00;1.67;;;;;17.82;57.06;100874.59;4773511;29;45469;-86
2021/07/31 04:31:36;;;;;;;;;3.00;1.00;;;;;17.79;57.39;100874.63;4789218;29;46688;-85
2021/07/31 04:34:01;;;;;;;;;4.00;3.00;;;;;17.75;57.61;100878.22;4789607;29;45422;-86
2021/07/31 04:36:27;;;;;;;;;2.67;2.00;;;;;17.71;57.70;100874.72;4789325;29;45401;-85
2021/07/31 04:38:52;;;;;;;;;4.00;3.00;;;;;17.66;57.76;100865.03;4789534;29;45394;-85
2021/07/31 04:41:17;;;;;;;;;2.00;2.00;;;;;17.73;57.83;100872.03;4773043;29;46222;-85
2021/07/31 04:43:43;;;;;;;;;3.00;3.00;;;;;17.73;57.83;100874.69;4789447;29;45353;-85
2021/07/31 04:46:08;;;;;;;;;3.67;2.00;;;;;17.72;58.01;100870.28;4773163;29;45583;-85
2021/07/31 04:48:34;;;;;;;;;4.00;3.00;;;;;17.71;58.16;100874.72;4789842;29;45414;-85
2021/07/31 04:51:01;;;;;;;;;3.67;3.00;;;;;17.67;58.09;100867.66;4789662;29;45273;-86
2021/07/31 04:53:27;;;;;;;;;3.33;3.00;;;;;17.75;58.39;100879.97;4789428;29;45341;-86
2021/07/31 04:55:53;;;;;;;;;4.67;3.00;;;;;17.76;58.33;100885.31;4789440;29;45373;-86
2021/07/31 04:58:20;;;;;;;;;4.33;3.00;;;;;17.74;58.62;100880.91;4789697;29;45267;-85
2021/07/31 05:00:46;;;;;;;;;2.00;2.00;;;;;17.73;58.21;100881.78;4789010;29;46170;-85
2021/07/31 05:03:13;;;;;;;;;4.00;3.00;;;;;17.76;58.39;100887.97;4789310;29;45513;-86
2021/07/31 05:05:38;;;;;;;;;4.67;4.00;;;;;17.74;58.28;100878.25;4789278;29;45420;-85
2021/07/31 05:08:04;;;;;;;;;5.00;2.33;;;;;17.73;58.85;100881.78;4789079;29;45480;-85
2021/07/31 05:10:29;;;;;;;;;5.00;3.00;;;;;17.75;58.82;100883.53;4789075;29;45390;-85
2021/07/31 05:12:55;;;;;;;;;4.00;4.00;;;;;17.78;58.51;100885.28;4788805;29;45396;-85
2021/07/31 05:15:20;;;;;;;;;3.00;3.00;;;;;17.76;58.30;100893.28;4789365;29;45643;-85
2021/07/31 05:17:46;;;;;;;;;3.67;3.00;;;;;17.74;58.68;100887.09;4773347;29;45349;-85
2021/07/31 05:20:12;;;;;;;;;6.00;4.00;;;;;17.68;58.49;100890.69;4789513;29;46251;-85
2021/07/31 05:22:37;;;;;;;;;4.67;4.00;;;;;17.67;58.50;100872.97;4789935;29;45333;-85
2021/07/31 05:25:03;;;;;;;;;6.67;3.33;;;;;17.77;58.89;100888.81;4789797;29;45513;-86
2021/07/31 05:27:29;;;;;;;;;3.33;3.00;;;;;17.76;58.66;100889.75;4790035;29;45234;-86
2021/07/31 05:29:54;;;;;;;;;3.00;3.00;;;;;17.76;58.67;100887.09;4788724;29;46566;-87
2021/07/31 05:32:19;;;;;;;;;3.67;3.00;;;;;17.76;58.77;100892.41;4789319;29;45349;-85
2021/07/31 05:34:45;;;;;;;;;5.33;4.00;;;;;17.76;58.82;100893.28;4789310;29;45324;-86
2021/07/31 05:37:10;;;;;;;;;3.00;3.00;;;;;17.74;58.70;100888.88;4788976;29;45353;-85
2021/07/31 05:39:36;;;;;;;;;4.33;3.67;;;;;17.77;58.86;100904.78;4788809;29;46222;-86
2021/07/31 05:42:02;;;;;;;;;4.00;4.00;;;;;17.77;58.94;100897.69;4788795;29;45458;-85
2021/07/31 05:44:28;;;;;;;;;6.00;4.00;;;;;17.76;58.67;100895.06;4789139;29;45409;-85
2021/07/31 05:46:54;;;;;;;;;5.00;3.67;;;;;17.73;58.92;100898.63;4772411;29;45426;-86
2021/07/31 05:49:19;;;;;;;;;3.00;3.00;;;;;17.78;58.88;100906.56;4772016;29;45925;-86
2021/07/31 05:51:45;;;;;;;;;6.67;4.67;;;;;17.77;59.06;100897.69;4788803;29;45427;-86
2021/07/31 05:54:11;;;;;;;;;4.00;3.00;;;;;17.65;59.28;100887.19;4788670;29;45527;-85
2021/07/31 05:56:37;;;;;;;;;4.33;3.00;;;;;17.70;59.28;100888.88;4788751;29;45207;-86
2021/07/31 05:59:02;;;;;;;;;5.00;3.33;;;;;17.72;59.38;100894.22;4771770;29;47816;-85
2021/07/31 06:01:27;;;;;;;;;7.00;4.00;;;;;17.76;59.16;100892.41;4788576;29;45356;-85
2021/07/31 06:03:53;;;;;;;;;5.33;4.67;;;;;17.73;59.27;100897.72;4788761;29;45554;-85
2021/07/31 06:06:18;;;;;;;;;7.00;4.00;;;;;17.78;59.51;100907.44;4789012;29;45210;-84
2021/07/31 06:08:43;;;;;;;;;4.67;3.33;;;;;17.77;59.28;100902.13;4788448;29;45369;-86
2021/07/31 06:11:09;;;;;;;;;5.33;3.00;;;;;17.75;59.56;100898.59;4788465;29;45480;-87
2021/07/31 06:13:34;;;;;;;;;3.67;3.00;;;;;17.82;59.39;100902.97;4788540;29;45334;-86
2021/07/31 06:16:00;;;;;;;;;8.33;5.00;;;;;17.77;59.44;100902.13;4788749;29;45366;-86
2021/07/31 06:18:25;;;;;;;;;5.00;5.00;;;;;17.76;59.37;100887.09;4788450;29;45516;-86
2021/07/31 06:20:51;;;;;;;;;6.00;5.00;;;;;17.82;59.35;100909.19;4788274;29;45383;-87
2021/07/31 06:23:17;;;;;;;;;4.00;4.00;;;;;17.84;59.55;100901.19;4788493;29;45401;-84
2021/07/31 06:25:43;;;;;;;;;4.67;4.67;;;;;17.80;59.51;100899.44;4788374;29;45275;-84
2021/07/31 06:28:09;;;;;;;;;4.33;3.00;;;;;17.89;59.66;100915.31;4788141;29;46664;-85
2021/07/31 06:30:34;;;;;;;;;4.67;4.00;;;;;17.90;59.68;100933.03;4789175;29;45294;-85
2021/07/31 06:33:00;;;;;;;;;7.67;5.00;;;;;17.87;59.12;100922.44;4791397;29;45360;-85
2021/07/31 06:35:25;;;;;;;;;5.00;4.00;;;;;17.90;59.29;100927.72;4760238;29;45388;-85
2021/07/31 06:37:52;;;;;;;;;5.00;5.00;;;;;17.92;59.40;100931.22;4790796;29;45275;-86
2021/07/31 06:40:17;;;;;;;;;5.00;3.67;;;;;17.97;59.62;100917.00;4791236;29;45276;-86
2021/07/31 06:42:43;;;;;;;;;8.00;5.00;;;;;17.93;59.65;100921.47;4791154;29;45265;-86
2021/07/31 06:45:08;;;;;;;;;5.00;5.00;;;;;17.97;59.38;100927.66;4774997;29;45504;-85
2021/07/31 06:47:34;;;;;;;;;5.00;4.00;;;;;18.02;59.62;100931.16;4791044;29;46333;-84
2021/07/31 06:49:59;;;;;;;;;6.67;5.00;;;;;18.04;59.62;100924.03;4792600;29;45482;-85
2021/07/31 06:52:24;;;;;;;;;5.33;5.00;;;;;18.11;59.56;100923.06;4793020;29;45450;-85
2021/07/31 06:54:50;;;;;;;;;5.00;4.00;;;;;18.15;59.13;100929.22;4780888;29;45760;-86
2021/07/31 06:57:15;;;;;;;;;5.00;3.67;;;;;18.17;59.25;100922.13;4797553;29;45336;-84
2021/07/31 06:59:40;;;;;;;;;3.67;3.00;;;;;18.19;59.21;100924.78;4794593;29;45332;-85
2021/07/31 07:02:06;;;;;;;;;3.00;3.00;;;;;18.24;59.15;100923.84;4791851;29;45499;-86
2021/07/31 07:04:32;;;;;;;;;4.00;4.00;;;;;18.25;59.63;100925.59;4791372;29;45399;-85
2021/07/31 07:06:59;;;;;;;;;4.67;3.00;;;;;18.25;59.27;100916.75;4791204;29;46077;-84
2021/07/31 07:09:24;;;;;;;;;4.33;4.00;;;;;18.44;59.07;100938.69;4774435;29;45420;-84
2021/07/31 07:11:50;;;;;;;;;6.00;5.00;;;;;18.51;58.74;100942.13;4790905;29;45346;-87
2021/07/31 07:14:15;;;;;;;;;8.00;5.00;;;;;18.50;58.62;100941.28;4791244;29;45494;-86
2021/07/31 07:16:41;;;;;;;;;5.33;5.33;;;;;18.57;58.27;100939.41;4791139;29;45437;-85
2021/07/31 07:19:06;;;;;;;;;6.00;4.67;;;;;18.65;58.50;100943.75;4790716;29;45259;-87
2021/07/31 07:21:31;;;;;;;;;3.67;2.67;;;;;18.66;58.44;100930.41;4791034;29;45784;-86
2021/07/31 07:23:57;;;;;;;;;7.00;5.67;;;;;18.69;58.22;100934.81;4790790;29;45391;-85
2021/07/31 07:26:22;;;;;;;;;4.67;4.67;;;;;18.79;58.02;100938.25;4790467;29;46130;-85
2021/07/31 07:28:48;;;;;;;;;4.67;4.67;;;;;18.80;58.07;100935.56;4790367;29;45416;-85
2021/07/31 07:31:14;;;;;;;;;4.33;4.33;;;;;18.87;58.11;100944.34;4774513;29;45217;-85
2021/07/31 07:33:41;;;;;;;;;5.67;4.00;;;;;18.98;58.07;100944.19;4789303;29;45495;-86
2021/07/31 07:36:14;;;;;;;;;6.33;4.00;;;;;18.98;57.76;100944.19;4790118;29;45501;-86
2021/07/31 07:38:39;;;;;;;;;1.00;1.00;;;;;19.07;57.45;100946.75;4789970;29;45473;-86
2021/07/31 07:41:09;;;;;;;;;4.00;4.00;;;;;19.12;57.70;100948.44;4791276;29;45424;-86
2021/07/31 07:43:35;;;;;;;;;4.67;3.67;;;;;19.15;57.39;100938.66;4791070;29;45333;-86
2021/07/31 07:46:01;;;;;;;;;6.00;4.33;;;;;19.20;57.76;100947.47;4790412;29;45343;-85
2021/07/31 07:48:26;;;;;;;;;6.00;4.67;;;;;19.26;57.23;100946.50;4790050;29;45609;-85
2021/07/31 07:50:51;;;;;;;;;7.67;4.67;;;;;19.30;57.08;100945.53;4790388;29;45444;-86
2021/07/31 07:53:17;;;;;;;;;6.00;3.67;;;;;19.31;57.15;100943.75;4790616;29;45383;-86
2021/07/31 07:55:42;;;;;;;;;8.33;5.00;;;;;19.39;56.88;100935.63;4790180;29;45300;-85
2021/07/31 07:58:09;;;;;;;;;4.67;4.00;;;;;19.49;57.05;100947.91;4790266;29;45184;-86
2021/07/31 08:00:35;;;;;;;;;5.00;5.00;;;;;19.53;56.82;100944.28;4790389;29;45494;-86
2021/07/31 08:03:01;;;;;;;;;6.00;5.00;;;;;19.52;57.03;100939.84;4790475;29;45396;-86
2021/07/31 08:05:26;;;;;;;;;3.67;3.00;;;;;19.60;56.46;100949.50;4790432;29;45574;-86
2021/07/31 08:07:51;;;;;;;;;5.00;5.00;;;;;19.60;56.45;100942.38;4773816;29;46215;-85
2021/07/31 08:10:17;;;;;;;;;5.00;4.00;;;;;19.67;56.23;100949.38;4791846;29;45345;-86
2021/07/31 08:12:42;;;;;;;;;5.00;3.33;;;;;19.68;56.09;100939.59;4791052;29;45358;-85
2021/07/31 08:15:09;;;;;;;;;3.00;3.00;;;;;19.69;56.04;100940.47;4790214;29;45383;-85
2021/07/31 08:17:34;;;;;;;;;5.00;3.00;;;;;19.71;55.81;100946.66;4790670;29;45454;-84
2021/07/31 08:20:00;;;;;;;;;4.00;4.00;;;;;19.71;55.80;100950.22;4790697;29;45248;-85
2021/07/31 08:22:25;;;;;;;;;8.33;4.67;;;;;19.69;55.88;100936.03;4790799;29;45288;-85
2021/07/31 08:24:51;;;;;;;;;4.33;3.67;;;;;19.74;55.70;100936.81;4790102;29;45509;-85
2021/07/31 08:27:16;;;;;;;;;4.33;2.67;;;;;19.70;55.88;100919.09;4790388;29;45238;-86
2021/07/31 08:29:41;;;;;;;;;5.33;5.33;;;;;19.90;55.68;100939.22;4790435;29;45410;-85
2021/07/31 08:32:07;;;;;;;;;7.00;5.00;;;;;19.98;55.44;100939.06;4790676;29;45511;-85
2021/07/31 08:34:32;;;;;;;;;5.00;5.00;;;;;20.12;55.61;100941.50;4791017;29;46086;-85
2021/07/31 08:37:02;;;;;;;;;6.00;4.33;;;;;20.51;55.57;100945.19;4790673;29;45295;-86
2021/07/31 08:39:28;;;;;;;;;7.33;5.33;;;;;21.03;55.04;100936.97;4791010;29;45295;-85
2021/07/31 08:41:54;;;;;;;;;9.33;5.00;;;;;21.60;54.32;100937.38;4791293;29;45852;-85
2021/07/31 08:44:19;;;;;;;;;3.33;3.33;;;;;22.10;53.67;100933.41;4790983;29;45465;-85
2021/07/31 08:46:46;;;;;;;;;4.00;3.67;;;;;22.54;52.43;100945.56;4790584;29;45241;-86
2021/07/31 08:49:16;;;;;;;;;4.00;3.00;;;;;22.72;51.54;100951.31;4790511;29;45404;-85
2021/07/31 08:51:44;;;;;;;;;2.33;2.33;;;;;22.77;51.00;100941.34;4790824;29;45423;-86
2021/07/31 08:54:09;;;;;;;;;3.00;3.00;;;;;22.80;50.25;100943.06;4791148;29;45407;-86
2021/07/31 08:56:35;;;;;;;;;4.00;3.00;;;;;23.11;50.42;100941.22;4794448;29;45353;-85
2021/07/31 08:59:00;;;;;;;;;4.00;4.00;;;;;23.27;50.11;100938.91;4791027;29;45184;-86
2021/07/31 09:01:25;;;;;;;;;3.33;3.00;;;;;23.33;49.83;100940.53;4790616;29;45319;-86
2021/07/31 09:03:54;;;;;;;;;6.33;4.67;;;;;23.35;49.84;100941.34;4790219;29;46369;-85
2021/07/31 09:06:30;;;;;;;;;5.00;5.00;;;;;23.31;48.88;100937.88;4788492;29;45387;-84
2021/07/31 09:08:58;;;;;;;;;5.33;3.67;;;;;23.27;48.76;100941.59;4790595;29;45458;-85
2021/07/31 09:11:25;;;;;;;;;5.67;5.67;;;;;23.15;48.38;100953.59;4774275;29;45535;-86
2021/07/31 09:14:14;;;;;;;;;5.33;4.00;;;;;23.00;48.06;100946.91;4790665;29;46559;-86
2021/07/31 09:16:41;;;;;;;;;1.00;1.00;;;;;22.90;48.18;100951.69;4790458;29;45575;-85
2021/07/31 09:19:09;;;;;;;;;5.00;3.00;;;;;23.08;48.93;100930.56;4790371;29;45407;-85
2021/07/31 09:21:35;;;;;;;;;5.00;4.00;;;;;23.36;48.45;100941.28;4790626;29;45278;-85
2021/07/31 09:24:01;;;;;;;;;3.00;2.00;;;;;23.42;48.08;100950.94;4774895;29;48373;-86
2021/07/31 09:26:37;;;;;;;;;5.00;5.00;;;;;23.34;47.66;100950.31;4790922;29;45288;-86
2021/07/31 09:29:10;;;;;;;;;3.33;3.00;;;;;23.21;47.26;100941.78;4775025;29;45345;-87
2021/07/31 09:31:37;;;;;;;;;5.33;4.00;;;;;23.07;47.86;100936.88;4792243;29;45416;-85
2021/07/31 09:34:04;;;;;;;;;6.00;4.00;;;;;22.94;48.11;100928.34;4790144;29;45451;-85
2021/07/31 09:36:40;;;;;;;;;5.00;5.00;;;;;22.84;47.99;100931.31;4790306;29;45512;-86
2021/07/31 09:39:11;;;;;;;;;3.00;3.00;;;;;22.72;47.94;100937.91;4790582;29;45573;-86
2021/07/31 09:41:41;;;;;;;;;4.00;3.33;;;;;22.66;47.46;100938.09;4790656;29;45346;-85
2021/07/31 09:44:15;;;;;;;;;2.33;2.33;;;;;22.59;48.12;100942.72;4789505;29;45640;-85
2021/07/31 09:46:51;;;;;;;;;4.67;4.00;;;;;22.49;48.30;100934.09;4789824;29;45414;-85
2021/07/31 09:49:21;;;;;;;;;6.00;3.00;;;;;22.37;49.03;100932.66;4790349;29;45410;-86
2021/07/31 09:51:49;;;;;;;;;4.67;4.00;;;;;22.28;48.87;100925.78;4775196;29;45476;-85
2021/07/31 09:54:17;;;;;;;;;5.00;3.33;;;;;22.58;49.93;100926.72;4790647;29;47793;-85
2021/07/31 09:56:44;;;;;;;;;5.00;4.33;;;;;23.06;51.21;100925.25;4791010;29;45385;-86
2021/07/31 09:59:11;;;;;;;;;3.33;3.33;;;;;23.61;49.85;100923.50;4774433;29;45483;-86
2021/07/31 10:01:40;;;;;;;;;5.00;3.67;;;;;24.03;49.10;100913.97;4793041;29;45393;-85
2021/07/31 10:04:06;;;;;;;;;3.00;3.00;;;;;24.14;48.02;100918.97;4806437;29;45547;-85
2021/07/31 10:06:32;;;;;;;;;7.00;4.33;;;;;24.09;46.60;100907.53;4809347;29;44779;-85
2021/07/31 10:09:01;;;;;;;;;3.00;3.00;;;;;23.99;46.37;100908.78;4811578;29;45277;-85
2021/07/31 10:11:27;;;;;;;;;3.33;3.33;;;;;23.89;46.77;100916.28;4801594;29;45457;-85
2021/07/31 10:13:54;;;;;;;;;8.67;4.00;;;;;23.74;46.42;100912.34;4794404;29;45326;-86
2021/07/31 10:16:20;;;;;;;;;3.00;3.00;;;;;23.62;46.90;100913.66;4792648;29;45583;-85
2021/07/31 10:19:09;;;;;;;;;4.33;2.67;;;;;23.48;46.19;100910.50;4793344;29;45448;-86
2021/07/31 10:21:52;;;;;;;;;4.67;4.00;;;;;23.38;46.96;100901.00;4793153;29;45554;-86
2021/07/31 10:24:18;;;;;;;;;3.00;3.00;;;;;23.33;47.15;100911.88;4776345;29;46763;-86
2021/07/31 10:27:14;;;;;;;;;5.00;4.00;;;;;23.32;47.22;100901.22;4792960;29;45276;-87
2021/07/31 10:29:44;;;;;;;;;6.00;4.33;;;;;23.32;47.29;100909.25;4792796;29;45371;-86
2021/07/31 10:32:21;;;;;;;;;4.00;2.33;;;;;23.31;46.82;100907.50;4793287;29;45493;-86
2021/07/31 10:34:55;;;;;;;;;7.00;3.00;;;;;23.29;46.76;100895.97;4792739;29;46415;-86
2021/07/31 10:37:30;;;;;;;;;3.00;3.00;;;;;23.34;46.70;100902.03;4792563;29;45457;-86
2021/07/31 10:39:59;;;;;;;;;4.33;3.00;;;;;23.39;47.00;100899.19;4790918;29;45496;-86
2021/07/31 10:42:26;;;;;;;;;6.67;4.33;;;;;23.43;46.94;100896.38;4792552;29;45304;-86
2021/07/31 10:45:15;;;;;;;;;5.00;3.00;;;;;23.47;46.73;100892.69;4791643;29;46593;-86
2021/07/31 10:47:42;;;;;;;;;3.33;3.33;;;;;23.49;47.04;100900.66;4791913;29;45385;-86
2021/07/31 10:50:23;;;;;;;;;4.00;3.00;;;;;23.50;46.44;100898.88;4792626;29;45430;-86
2021/07/31 10:53:10;;;;;;;;;2.67;2.67;;;;;23.48;46.14;100905.16;4793125;29;45423;-86
2021/07/31 10:55:36;;;;;;;;;3.33;3.33;;;;;23.50;46.65;100896.19;4792735;29;46180;-87
2021/07/31 10:58:01;;;;;;;;;3.67;3.00;;;;;23.55;46.43;100888.84;4791970;29;45395;-86
2021/07/31 11:00:37;;;;;;;;;4.67;3.00;;;;;23.84;46.88;100900.34;4791646;29;45312;-86
2021/07/31 11:03:23;;;;;;;;;8.00;4.33;;;;;24.24;47.37;100883.75;4792306;29;45479;-86
2021/07/31 11:05:49;;;;;;;;;2.00;2.00;;;;;24.76;46.09;100898.75;4792353;29;46457;-86
2021/07/31 11:08:21;;;;;;;;;5.67;3.33;;;;;25.17;45.11;100891.81;4792223;29;45393;-86
2021/07/31 11:10:51;;;;;;;;;5.00;4.00;;;;;25.59;45.33;100884.66;4792211;29;45412;-86
2021/07/31 11:13:16;;;;;;;;;5.00;4.00;;;;;26.05;43.93;100883.56;4792074;29;45238;-86
2021/07/31 11:16:06;;;;;;;;;3.00;3.00;;;;;26.48;43.56;100898.72;4791297;29;46523;-86
2021/07/31 11:18:35;;;;;;;;;2.67;2.67;;;;;26.88;42.13;100895.91;4786969;29;45453;-85
2021/07/31 11:21:27;;;;;;;;;4.00;1.67;;;;;27.01;41.51;100898.84;4795735;29;45348;-86
2021/07/31 11:23:58;;;;;;;;;4.00;1.00;;;;;27.22;40.34;100889.81;4803570;29;45404;-86